ジッダ の空港の天気 - METARとTAF

キング・アブドゥルアズィーズ国際空港(ジッダ) ( OEJN / JED ) - サウジアラビア ジッダ
飛行場実況気象(Metar)
観測時間10/15 20:00 AST (10/15 17:00 UTC)
風向・風速北 2m/s
視程6000m
天気現象
全天の8割程度の雲 雲底高度 1070m
気温32℃
湿度67%
気圧1010hPa
METAROEJN 151700Z 36004KT 6000 BKN035 32/25 Q1010 NOSIG
過去の天気等 Google飛行場航空写真 Wunderground天気予報

過去48時間のMETAR

飛行場予報(TAF)
発表時間: 10/15 14:00 AST (10/15 11:00 UTC)
予報対象時間: 15日15時 AST ~ 16日21時 AST
風向・風速北西 7m/s
視程7000m
少しの雲 雲底高度 1220m
全天の4割程度の雲 雲底高度 2440m
15日19時 AST ~ 15日21時 AST に徐々に
風向・風速北 3m/s
TAF OEJN 151100Z 1512/1618 32014KT 7000 FEW040 SCT080
BECMG 1516/1518 36006KT